sensor_id;sensor_type;location;lat;lon;timestamp;P1;durP1;ratioP1;P2;durP2;ratioP2
21769;SDS011;11046;49.558;8.674;2024-02-15T00:02:59;5.57;;;3.53;;
21769;SDS011;11046;49.558;8.674;2024-02-15T00:06:00;11.67;;;3.83;;
21769;SDS011;11046;49.558;8.674;2024-02-15T00:09:01;7.67;;;3.83;;
21769;SDS011;11046;49.558;8.674;2024-02-15T00:12:02;8.03;;;3.93;;
21769;SDS011;11046;49.558;8.674;2024-02-15T00:15:03;6.07;;;3.95;;
21769;SDS011;11046;49.558;8.674;2024-02-15T00:18:04;5.97;;;4.27;;
21769;SDS011;11046;49.558;8.674;2024-02-15T00:21:05;11.57;;;4.43;;
21769;SDS011;11046;49.558;8.674;2024-02-15T00:24:05;6.90;;;4.50;;
21769;SDS011;11046;49.558;8.674;2024-02-15T00:27:07;7.30;;;4.43;;
21769;SDS011;11046;49.558;8.674;2024-02-15T00:30:08;7.38;;;4.13;;
21769;SDS011;11046;49.558;8.674;2024-02-15T00:33:09;7.30;;;4.23;;
21769;SDS011;11046;49.558;8.674;2024-02-15T00:36:10;10.63;;;4.13;;
21769;SDS011;11046;49.558;8.674;2024-02-15T00:39:11;7.97;;;4.03;;
21769;SDS011;11046;49.558;8.674;2024-02-15T00:42:13;7.00;;;3.92;;
21769;SDS011;11046;49.558;8.674;2024-02-15T00:45:15;7.30;;;3.73;;
21769;SDS011;11046;49.558;8.674;2024-02-15T00:48:16;9.77;;;4.13;;
21769;SDS011;11046;49.558;8.674;2024-02-15T00:51:16;7.63;;;3.90;;
21769;SDS011;11046;49.558;8.674;2024-02-15T00:54:17;6.73;;;3.50;;
21769;SDS011;11046;49.558;8.674;2024-02-15T00:57:17;4.97;;;3.40;;
21769;SDS011;11046;49.558;8.674;2024-02-15T01:00:18;7.35;;;3.35;;
21769;SDS011;11046;49.558;8.674;2024-02-15T01:03:19;6.73;;;3.47;;
21769;SDS011;11046;49.558;8.674;2024-02-15T01:06:19;6.97;;;3.40;;
21769;SDS011;11046;49.558;8.674;2024-02-15T01:09:23;6.47;;;3.28;;
21769;SDS011;11046;49.558;8.674;2024-02-15T01:12:24;5.07;;;3.03;;
21769;SDS011;11046;49.558;8.674;2024-02-15T01:15:24;5.30;;;2.80;;
21769;SDS011;11046;49.558;8.674;2024-02-15T01:18:25;8.37;;;3.33;;
21769;SDS011;11046;49.558;8.674;2024-02-15T01:21:27;7.80;;;3.00;;
21769;SDS011;11046;49.558;8.674;2024-02-15T01:24:27;7.63;;;3.30;;
21769;SDS011;11046;49.558;8.674;2024-02-15T01:27:28;4.97;;;3.10;;
21769;SDS011;11046;49.558;8.674;2024-02-15T01:30:30;4.30;;;3.00;;
21769;SDS011;11046;49.558;8.674;2024-02-15T01:33:31;6.77;;;2.80;;
21769;SDS011;11046;49.558;8.674;2024-02-15T01:36:32;6.80;;;2.70;;
21769;SDS011;11046;49.558;8.674;2024-02-15T01:39:33;7.47;;;2.75;;
21769;SDS011;11046;49.558;8.674;2024-02-15T01:42:33;5.77;;;2.70;;
21769;SDS011;11046;49.558;8.674;2024-02-15T01:45:34;9.60;;;3.13;;
21769;SDS011;11046;49.558;8.674;2024-02-15T01:48:39;4.33;;;2.93;;
21769;SDS011;11046;49.558;8.674;2024-02-15T01:51:41;5.05;;;3.10;;
21769;SDS011;11046;49.558;8.674;2024-02-15T01:54:43;6.37;;;2.90;;
21769;SDS011;11046;49.558;8.674;2024-02-15T01:57:45;8.40;;;2.70;;
21769;SDS011;11046;49.558;8.674;2024-02-15T02:00:46;5.70;;;3.13;;
21769;SDS011;11046;49.558;8.674;2024-02-15T02:03:48;11.33;;;3.07;;
21769;SDS011;11046;49.558;8.674;2024-02-15T02:06:49;6.10;;;2.83;;
21769;SDS011;11046;49.558;8.674;2024-02-15T02:09:49;5.90;;;2.90;;
21769;SDS011;11046;49.558;8.674;2024-02-15T02:12:50;7.27;;;2.90;;
21769;SDS011;11046;49.558;8.674;2024-02-15T02:15:51;5.57;;;2.90;;
21769;SDS011;11046;49.558;8.674;2024-02-15T02:18:51;4.67;;;2.87;;
21769;SDS011;11046;49.558;8.674;2024-02-15T02:21:52;4.87;;;2.90;;
21769;SDS011;11046;49.558;8.674;2024-02-15T02:25:07;4.97;;;3.00;;
21769;SDS011;11046;49.558;8.674;2024-02-15T02:28:08;4.33;;;3.10;;
21769;SDS011;11046;49.558;8.674;2024-02-15T02:31:10;5.10;;;2.90;;
21769;SDS011;11046;49.558;8.674;2024-02-15T02:34:11;4.27;;;2.70;;
21769;SDS011;11046;49.558;8.674;2024-02-15T02:37:13;5.53;;;2.60;;
21769;SDS011;11046;49.558;8.674;2024-02-15T02:40:14;7.27;;;3.00;;
21769;SDS011;11046;49.558;8.674;2024-02-15T02:46:32;6.63;;;2.70;;
21769;SDS011;11046;49.558;8.674;2024-02-15T02:49:32;6.73;;;3.00;;
21769;SDS011;11046;49.558;8.674;2024-02-15T02:52:35;5.80;;;3.00;;
21769;SDS011;11046;49.558;8.674;2024-02-15T02:55:40;8.23;;;3.20;;
21769;SDS011;11046;49.558;8.674;2024-02-15T02:58:41;6.53;;;2.80;;
21769;SDS011;11046;49.558;8.674;2024-02-15T03:01:44;9.77;;;2.80;;
21769;SDS011;11046;49.558;8.674;2024-02-15T03:04:45;8.00;;;2.93;;
21769;SDS011;11046;49.558;8.674;2024-02-15T03:07:45;6.60;;;3.07;;
21769;SDS011;11046;49.558;8.674;2024-02-15T03:10:46;3.90;;;2.70;;
21769;SDS011;11046;49.558;8.674;2024-02-15T03:13:47;7.47;;;3.00;;
21769;SDS011;11046;49.558;8.674;2024-02-15T03:16:48;6.07;;;2.93;;
21769;SDS011;11046;49.558;8.674;2024-02-15T03:19:48;8.67;;;2.70;;
21769;SDS011;11046;49.558;8.674;2024-02-15T03:22:53;8.10;;;3.20;;
21769;SDS011;11046;49.558;8.674;2024-02-15T03:25:54;7.53;;;3.10;;
21769;SDS011;11046;49.558;8.674;2024-02-15T03:28:55;7.07;;;3.23;;
21769;SDS011;11046;49.558;8.674;2024-02-15T03:31:56;11.05;;;3.13;;
21769;SDS011;11046;49.558;8.674;2024-02-15T03:34:56;6.80;;;3.13;;
21769;SDS011;11046;49.558;8.674;2024-02-15T03:37:57;7.67;;;3.00;;
21769;SDS011;11046;49.558;8.674;2024-02-15T03:40:58;7.00;;;2.83;;
21769;SDS011;11046;49.558;8.674;2024-02-15T03:43:59;9.40;;;3.00;;
21769;SDS011;11046;49.558;8.674;2024-02-15T03:47:00;8.00;;;3.10;;
21769;SDS011;11046;49.558;8.674;2024-02-15T03:50:01;11.13;;;3.17;;
21769;SDS011;11046;49.558;8.674;2024-02-15T03:53:05;6.97;;;3.00;;
21769;SDS011;11046;49.558;8.674;2024-02-15T03:56:06;6.20;;;2.93;;
21769;SDS011;11046;49.558;8.674;2024-02-15T03:59:06;5.17;;;2.87;;
21769;SDS011;11046;49.558;8.674;2024-02-15T04:02:08;4.87;;;2.90;;
21769;SDS011;11046;49.558;8.674;2024-02-15T04:05:14;10.40;;;3.60;;
21769;SDS011;11046;49.558;8.674;2024-02-15T04:08:18;6.20;;;3.30;;
21769;SDS011;11046;49.558;8.674;2024-02-15T04:11:22;7.53;;;3.70;;
21769;SDS011;11046;49.558;8.674;2024-02-15T04:14:25;9.23;;;3.53;;
21769;SDS011;11046;49.558;8.674;2024-02-15T04:17:26;12.63;;;3.80;;
21769;SDS011;11046;49.558;8.674;2024-02-15T04:20:26;9.53;;;3.40;;
21769;SDS011;11046;49.558;8.674;2024-02-15T04:23:37;11.13;;;4.47;;
21769;SDS011;11046;49.558;8.674;2024-02-15T04:26:43;9.70;;;3.70;;
21769;SDS011;11046;49.558;8.674;2024-02-15T04:29:50;7.97;;;3.40;;
21769;SDS011;11046;49.558;8.674;2024-02-15T04:32:55;9.23;;;3.50;;
21769;SDS011;11046;49.558;8.674;2024-02-15T04:35:58;10.57;;;3.13;;
21769;SDS011;11046;49.558;8.674;2024-02-15T04:39:01;10.93;;;3.20;;
21769;SDS011;11046;49.558;8.674;2024-02-15T04:42:11;7.30;;;3.20;;
21769;SDS011;11046;49.558;8.674;2024-02-15T04:45:12;12.53;;;3.73;;
21769;SDS011;11046;49.558;8.674;2024-02-15T04:48:15;10.07;;;3.70;;
21769;SDS011;11046;49.558;8.674;2024-02-15T04:51:20;9.57;;;4.17;;
21769;SDS011;11046;49.558;8.674;2024-02-15T04:54:24;10.37;;;3.80;;
21769;SDS011;11046;49.558;8.674;2024-02-15T04:57:26;8.07;;;4.10;;
21769;SDS011;11046;49.558;8.674;2024-02-15T05:00:33;9.27;;;4.20;;
21769;SDS011;11046;49.558;8.674;2024-02-15T05:03:33;9.73;;;4.00;;
21769;SDS011;11046;49.558;8.674;2024-02-15T05:06:35;8.60;;;3.37;;
21769;SDS011;11046;49.558;8.674;2024-02-15T05:09:36;9.97;;;4.10;;
21769;SDS011;11046;49.558;8.674;2024-02-15T05:12:37;10.00;;;3.93;;
21769;SDS011;11046;49.558;8.674;2024-02-15T05:15:40;5.50;;;3.70;;
21769;SDS011;11046;49.558;8.674;2024-02-15T05:18:40;7.60;;;3.70;;
21769;SDS011;11046;49.558;8.674;2024-02-15T05:21:41;8.43;;;3.53;;
21769;SDS011;11046;49.558;8.674;2024-02-15T05:24:45;10.57;;;4.70;;
21769;SDS011;11046;49.558;8.674;2024-02-15T05:27:45;6.73;;;3.70;;
21769;SDS011;11046;49.558;8.674;2024-02-15T05:30:46;6.90;;;3.47;;
21769;SDS011;11046;49.558;8.674;2024-02-15T05:33:47;11.73;;;4.20;;
21769;SDS011;11046;49.558;8.674;2024-02-15T05:36:49;15.90;;;5.00;;
21769;SDS011;11046;49.558;8.674;2024-02-15T05:39:49;10.87;;;5.17;;
21769;SDS011;11046;49.558;8.674;2024-02-15T05:42:57;8.00;;;4.90;;
21769;SDS011;11046;49.558;8.674;2024-02-15T05:45:58;9.30;;;4.77;;
21769;SDS011;11046;49.558;8.674;2024-02-15T05:49:00;12.47;;;6.00;;
21769;SDS011;11046;49.558;8.674;2024-02-15T05:52:02;12.07;;;5.77;;
21769;SDS011;11046;49.558;8.674;2024-02-15T05:55:03;9.87;;;5.67;;
21769;SDS011;11046;49.558;8.674;2024-02-15T05:58:04;9.47;;;5.50;;
21769;SDS011;11046;49.558;8.674;2024-02-15T06:01:05;9.10;;;5.00;;
21769;SDS011;11046;49.558;8.674;2024-02-15T06:04:06;11.80;;;5.00;;
21769;SDS011;11046;49.558;8.674;2024-02-15T06:07:08;7.63;;;4.43;;
21769;SDS011;11046;49.558;8.674;2024-02-15T06:10:10;8.67;;;4.90;;
21769;SDS011;11046;49.558;8.674;2024-02-15T06:13:10;13.17;;;4.47;;
21769;SDS011;11046;49.558;8.674;2024-02-15T06:16:11;8.67;;;3.40;;
21769;SDS011;11046;49.558;8.674;2024-02-15T06:19:11;8.10;;;3.73;;
21769;SDS011;11046;49.558;8.674;2024-02-15T06:22:14;8.73;;;3.50;;
21769;SDS011;11046;49.558;8.674;2024-02-15T06:25:15;6.97;;;3.10;;
21769;SDS011;11046;49.558;8.674;2024-02-15T06:28:23;6.93;;;3.47;;
21769;SDS011;11046;49.558;8.674;2024-02-15T06:31:43;8.57;;;3.07;;
21769;SDS011;11046;49.558;8.674;2024-02-15T06:35:02;7.13;;;3.23;;
21769;SDS011;11046;49.558;8.674;2024-02-15T06:38:21;5.97;;;2.92;;
21769;SDS011;11046;49.558;8.674;2024-02-15T06:41:41;5.80;;;3.10;;
21769;SDS011;11046;49.558;8.674;2024-02-15T06:44:42;5.93;;;2.97;;
21769;SDS011;11046;49.558;8.674;2024-02-15T06:47:43;18.73;;;3.73;;
21769;SDS011;11046;49.558;8.674;2024-02-15T06:50:47;10.27;;;4.10;;
21769;SDS011;11046;49.558;8.674;2024-02-15T06:53:48;12.53;;;3.50;;
21769;SDS011;11046;49.558;8.674;2024-02-15T06:56:49;8.93;;;3.57;;
21769;SDS011;11046;49.558;8.674;2024-02-15T06:59:52;5.63;;;2.77;;
21769;SDS011;11046;49.558;8.674;2024-02-15T07:02:52;5.63;;;2.90;;
21769;SDS011;11046;49.558;8.674;2024-02-15T07:05:53;6.40;;;2.90;;
21769;SDS011;11046;49.558;8.674;2024-02-15T07:08:54;8.70;;;3.47;;
21769;SDS011;11046;49.558;8.674;2024-02-15T07:11:56;9.73;;;2.80;;
21769;SDS011;11046;49.558;8.674;2024-02-15T07:14:58;8.00;;;2.93;;
21769;SDS011;11046;49.558;8.674;2024-02-15T07:17:58;10.07;;;2.77;;
21769;SDS011;11046;49.558;8.674;2024-02-15T07:20:59;8.53;;;2.97;;
21769;SDS011;11046;49.558;8.674;2024-02-15T07:24:01;7.77;;;3.30;;
21769;SDS011;11046;49.558;8.674;2024-02-15T07:27:01;10.83;;;3.93;;
21769;SDS011;11046;49.558;8.674;2024-02-15T07:30:02;10.93;;;4.33;;
21769;SDS011;11046;49.558;8.674;2024-02-15T07:33:04;13.38;;;4.30;;
21769;SDS011;11046;49.558;8.674;2024-02-15T07:36:06;8.53;;;3.40;;
21769;SDS011;11046;49.558;8.674;2024-02-15T07:39:07;9.47;;;3.50;;
21769;SDS011;11046;49.558;8.674;2024-02-15T07:42:12;9.10;;;3.37;;
21769;SDS011;11046;49.558;8.674;2024-02-15T07:45:12;7.43;;;3.20;;
21769;SDS011;11046;49.558;8.674;2024-02-15T07:48:13;6.35;;;2.35;;
21769;SDS011;11046;49.558;8.674;2024-02-15T07:51:18;4.03;;;2.60;;
21769;SDS011;11046;49.558;8.674;2024-02-15T07:54:20;6.20;;;2.35;;
21769;SDS011;11046;49.558;8.674;2024-02-15T07:57:21;4.45;;;2.33;;
21769;SDS011;11046;49.558;8.674;2024-02-15T08:00:22;3.97;;;1.90;;
21769;SDS011;11046;49.558;8.674;2024-02-15T08:03:23;6.23;;;2.10;;
21769;SDS011;11046;49.558;8.674;2024-02-15T08:06:23;5.27;;;2.30;;
21769;SDS011;11046;49.558;8.674;2024-02-15T08:09:27;4.20;;;2.20;;
21769;SDS011;11046;49.558;8.674;2024-02-15T08:12:28;3.93;;;2.07;;
21769;SDS011;11046;49.558;8.674;2024-02-15T08:15:29;5.17;;;2.10;;
21769;SDS011;11046;49.558;8.674;2024-02-15T08:18:29;7.07;;;3.10;;
21769;SDS011;11046;49.558;8.674;2024-02-15T08:21:31;5.63;;;2.40;;
21769;SDS011;11046;49.558;8.674;2024-02-15T08:24:38;10.25;;;3.13;;
21769;SDS011;11046;49.558;8.674;2024-02-15T08:27:40;5.80;;;2.35;;
21769;SDS011;11046;49.558;8.674;2024-02-15T08:30:44;7.33;;;2.30;;
21769;SDS011;11046;49.558;8.674;2024-02-15T08:33:44;8.25;;;2.90;;
21769;SDS011;11046;49.558;8.674;2024-02-15T08:36:45;6.90;;;2.60;;
21769;SDS011;11046;49.558;8.674;2024-02-15T08:39:48;5.53;;;2.40;;
21769;SDS011;11046;49.558;8.674;2024-02-15T08:42:49;6.28;;;2.30;;
21769;SDS011;11046;49.558;8.674;2024-02-15T08:45:49;5.72;;;2.78;;
21769;SDS011;11046;49.558;8.674;2024-02-15T08:48:50;8.02;;;2.67;;
21769;SDS011;11046;49.558;8.674;2024-02-15T08:51:51;3.97;;;2.05;;
21769;SDS011;11046;49.558;8.674;2024-02-15T08:54:52;5.30;;;1.98;;
21769;SDS011;11046;49.558;8.674;2024-02-15T08:57:54;12.95;;;2.13;;
21769;SDS011;11046;49.558;8.674;2024-02-15T09:00:54;7.65;;;2.22;;
21769;SDS011;11046;49.558;8.674;2024-02-15T09:03:57;5.82;;;2.00;;
21769;SDS011;11046;49.558;8.674;2024-02-15T09:06:57;5.35;;;2.17;;
21769;SDS011;11046;49.558;8.674;2024-02-15T09:09:58;4.50;;;2.03;;
21769;SDS011;11046;49.558;8.674;2024-02-15T09:12:59;4.32;;;2.03;;
21769;SDS011;11046;49.558;8.674;2024-02-15T09:15:59;6.45;;;2.50;;
21769;SDS011;11046;49.558;8.674;2024-02-15T09:19:00;5.18;;;2.00;;
21769;SDS011;11046;49.558;8.674;2024-02-15T09:22:02;6.28;;;1.90;;
21769;SDS011;11046;49.558;8.674;2024-02-15T09:25:07;7.40;;;2.00;;
21769;SDS011;11046;49.558;8.674;2024-02-15T09:28:08;5.18;;;1.77;;
21769;SDS011;11046;49.558;8.674;2024-02-15T09:31:09;6.45;;;1.90;;
21769;SDS011;11046;49.558;8.674;2024-02-15T09:34:14;3.60;;;1.95;;
21769;SDS011;11046;49.558;8.674;2024-02-15T09:37:14;7.05;;;1.90;;
21769;SDS011;11046;49.558;8.674;2024-02-15T09:40:16;3.17;;;1.65;;
21769;SDS011;11046;49.558;8.674;2024-02-15T09:43:17;5.53;;;1.73;;
21769;SDS011;11046;49.558;8.674;2024-02-15T09:46:18;6.13;;;1.92;;
21769;SDS011;11046;49.558;8.674;2024-02-15T09:49:19;4.13;;;2.00;;
21769;SDS011;11046;49.558;8.674;2024-02-15T09:52:20;5.10;;;2.10;;
21769;SDS011;11046;49.558;8.674;2024-02-15T09:55:21;4.22;;;1.80;;
21769;SDS011;11046;49.558;8.674;2024-02-15T09:58:23;5.53;;;2.47;;
21769;SDS011;11046;49.558;8.674;2024-02-15T10:01:23;9.82;;;1.90;;
21769;SDS011;11046;49.558;8.674;2024-02-15T10:04:27;7.45;;;2.40;;
21769;SDS011;11046;49.558;8.674;2024-02-15T10:07:28;9.13;;;2.42;;
21769;SDS011;11046;49.558;8.674;2024-02-15T10:10:28;7.47;;;1.83;;
21769;SDS011;11046;49.558;8.674;2024-02-15T10:13:29;4.20;;;2.00;;
21769;SDS011;11046;49.558;8.674;2024-02-15T10:16:33;6.00;;;2.25;;
21769;SDS011;11046;49.558;8.674;2024-02-15T10:19:35;5.35;;;2.13;;
21769;SDS011;11046;49.558;8.674;2024-02-15T10:22:36;2.85;;;1.77;;
21769;SDS011;11046;49.558;8.674;2024-02-15T10:25:37;4.97;;;2.08;;
21769;SDS011;11046;49.558;8.674;2024-02-15T10:28:38;6.60;;;2.17;;
21769;SDS011;11046;49.558;8.674;2024-02-15T10:31:39;5.38;;;2.40;;
21769;SDS011;11046;49.558;8.674;2024-02-15T10:34:51;5.32;;;2.60;;
21769;SDS011;11046;49.558;8.674;2024-02-15T10:38:05;5.35;;;2.05;;
21769;SDS011;11046;49.558;8.674;2024-02-15T10:41:10;5.28;;;2.00;;
21769;SDS011;11046;49.558;8.674;2024-02-15T10:44:13;4.22;;;1.98;;
21769;SDS011;11046;49.558;8.674;2024-02-15T10:47:19;4.78;;;1.90;;
21769;SDS011;11046;49.558;8.674;2024-02-15T10:50:20;7.18;;;1.90;;
21769;SDS011;11046;49.558;8.674;2024-02-15T10:53:21;4.72;;;1.90;;
21769;SDS011;11046;49.558;8.674;2024-02-15T10:56:27;6.63;;;2.28;;
21769;SDS011;11046;49.558;8.674;2024-02-15T10:59:37;3.85;;;1.63;;
21769;SDS011;11046;49.558;8.674;2024-02-15T11:02:54;4.57;;;1.60;;
21769;SDS011;11046;49.558;8.674;2024-02-15T11:06:02;2.85;;;1.70;;
21769;SDS011;11046;49.558;8.674;2024-02-15T11:09:07;7.60;;;1.90;;
21769;SDS011;11046;49.558;8.674;2024-02-15T11:12:11;3.65;;;1.80;;
21769;SDS011;11046;49.558;8.674;2024-02-15T11:15:11;2.28;;;1.48;;
21769;SDS011;11046;49.558;8.674;2024-02-15T11:18:13;4.93;;;1.50;;
21769;SDS011;11046;49.558;8.674;2024-02-15T11:21:54;4.20;;;1.58;;
21769;SDS011;11046;49.558;8.674;2024-02-15T11:24:59;4.30;;;1.50;;
21769;SDS011;11046;49.558;8.674;2024-02-15T11:35:02;6.07;;;1.70;;
21769;SDS011;11046;49.558;8.674;2024-02-15T11:38:12;7.10;;;1.52;;
21769;SDS011;11046;49.558;8.674;2024-02-15T11:41:28;3.67;;;1.70;;
21769;SDS011;11046;49.558;8.674;2024-02-15T11:44:29;4.18;;;1.50;;
21769;SDS011;11046;49.558;8.674;2024-02-15T11:47:31;3.45;;;1.65;;
21769;SDS011;11046;49.558;8.674;2024-02-15T11:50:37;6.00;;;1.85;;
21769;SDS011;11046;49.558;8.674;2024-02-15T11:53:39;3.03;;;1.45;;
21769;SDS011;11046;49.558;8.674;2024-02-15T11:59:43;4.22;;;1.70;;
21769;SDS011;11046;49.558;8.674;2024-02-15T12:02:53;7.13;;;1.88;;
21769;SDS011;11046;49.558;8.674;2024-02-15T12:06:16;5.72;;;1.80;;
21769;SDS011;11046;49.558;8.674;2024-02-15T12:09:36;5.40;;;1.60;;
21769;SDS011;11046;49.558;8.674;2024-02-15T12:12:56;4.60;;;1.60;;
21769;SDS011;11046;49.558;8.674;2024-02-15T12:16:15;3.85;;;1.70;;
21769;SDS011;11046;49.558;8.674;2024-02-15T12:19:34;4.88;;;1.67;;
21769;SDS011;11046;49.558;8.674;2024-02-15T12:22:36;4.55;;;1.55;;
21769;SDS011;11046;49.558;8.674;2024-02-15T12:25:41;6.28;;;1.50;;
21769;SDS011;11046;49.558;8.674;2024-02-15T12:28:42;3.17;;;1.60;;
21769;SDS011;11046;49.558;8.674;2024-02-15T12:31:43;4.95;;;1.02;;
21769;SDS011;11046;49.558;8.674;2024-02-15T12:34:44;2.75;;;0.90;;
21769;SDS011;11046;49.558;8.674;2024-02-15T12:37:45;1.20;;;0.95;;
21769;SDS011;11046;49.558;8.674;2024-02-15T12:41:20;6.03;;;1.42;;
21769;SDS011;11046;49.558;8.674;2024-02-15T12:44:21;2.75;;;1.02;;
21769;SDS011;11046;49.558;8.674;2024-02-15T12:47:22;3.08;;;1.08;;
21769;SDS011;11046;49.558;8.674;2024-02-15T12:50:28;4.57;;;1.10;;
21769;SDS011;11046;49.558;8.674;2024-02-15T12:53:29;3.88;;;1.10;;
21769;SDS011;11046;49.558;8.674;2024-02-15T12:56:30;2.35;;;1.27;;
21769;SDS011;11046;49.558;8.674;2024-02-15T12:59:31;3.22;;;1.20;;
21769;SDS011;11046;49.558;8.674;2024-02-15T13:02:31;2.58;;;1.08;;
21769;SDS011;11046;49.558;8.674;2024-02-15T13:05:32;2.80;;;1.00;;
21769;SDS011;11046;49.558;8.674;2024-02-15T13:08:33;3.58;;;1.20;;
21769;SDS011;11046;49.558;8.674;2024-02-15T13:11:35;4.47;;;1.73;;
21769;SDS011;11046;49.558;8.674;2024-02-15T13:14:36;4.63;;;1.60;;
21769;SDS011;11046;49.558;8.674;2024-02-15T13:17:37;4.25;;;1.20;;
21769;SDS011;11046;49.558;8.674;2024-02-15T13:20:38;6.63;;;1.67;;
21769;SDS011;11046;49.558;8.674;2024-02-15T13:23:39;4.35;;;1.30;;
21769;SDS011;11046;49.558;8.674;2024-02-15T13:26:40;4.15;;;1.38;;
21769;SDS011;11046;49.558;8.674;2024-02-15T13:29:40;4.05;;;1.17;;
21769;SDS011;11046;49.558;8.674;2024-02-15T13:32:41;1.98;;;1.20;;
21769;SDS011;11046;49.558;8.674;2024-02-15T13:35:42;3.58;;;1.70;;
21769;SDS011;11046;49.558;8.674;2024-02-15T13:38:43;3.42;;;1.20;;
21769;SDS011;11046;49.558;8.674;2024-02-15T13:41:43;5.47;;;1.13;;
21769;SDS011;11046;49.558;8.674;2024-02-15T13:44:44;4.35;;;1.52;;
21769;SDS011;11046;49.558;8.674;2024-02-15T13:47:47;4.07;;;1.30;;
21769;SDS011;11046;49.558;8.674;2024-02-15T13:50:50;4.72;;;1.23;;
21769;SDS011;11046;49.558;8.674;2024-02-15T13:53:53;2.45;;;1.30;;
21769;SDS011;11046;49.558;8.674;2024-02-15T13:56:53;7.97;;;1.30;;
21769;SDS011;11046;49.558;8.674;2024-02-15T13:59:55;2.50;;;1.33;;
21769;SDS011;11046;49.558;8.674;2024-02-15T14:02:56;6.00;;;1.38;;
21769;SDS011;11046;49.558;8.674;2024-02-15T14:05:58;2.10;;;1.10;;
21769;SDS011;11046;49.558;8.674;2024-02-15T14:09:00;2.53;;;1.17;;
21769;SDS011;11046;49.558;8.674;2024-02-15T14:12:00;7.40;;;1.33;;
21769;SDS011;11046;49.558;8.674;2024-02-15T14:15:06;2.67;;;1.10;;
21769;SDS011;11046;49.558;8.674;2024-02-15T14:18:07;5.28;;;1.90;;
21769;SDS011;11046;49.558;8.674;2024-02-15T14:21:18;3.60;;;1.80;;
21769;SDS011;11046;49.558;8.674;2024-02-15T14:24:19;2.13;;;1.30;;
21769;SDS011;11046;49.558;8.674;2024-02-15T14:27:23;2.72;;;1.25;;
21769;SDS011;11046;49.558;8.674;2024-02-15T14:30:24;4.85;;;1.17;;
21769;SDS011;11046;49.558;8.674;2024-02-15T14:33:44;3.90;;;0.98;;
21769;SDS011;11046;49.558;8.674;2024-02-15T14:36:44;4.20;;;1.10;;
21769;SDS011;11046;49.558;8.674;2024-02-15T14:39:47;4.55;;;1.58;;
21769;SDS011;11046;49.558;8.674;2024-02-15T14:42:48;4.78;;;1.20;;
21769;SDS011;11046;49.558;8.674;2024-02-15T14:45:49;3.88;;;1.02;;
21769;SDS011;11046;49.558;8.674;2024-02-15T14:48:49;1.67;;;0.98;;
21769;SDS011;11046;49.558;8.674;2024-02-15T14:51:50;3.13;;;1.20;;
21769;SDS011;11046;49.558;8.674;2024-02-15T14:54:51;3.72;;;1.10;;
21769;SDS011;11046;49.558;8.674;2024-02-15T14:57:52;4.15;;;1.00;;
21769;SDS011;11046;49.558;8.674;2024-02-15T15:00:52;2.33;;;1.00;;
21769;SDS011;11046;49.558;8.674;2024-02-15T15:03:54;4.70;;;1.45;;
21769;SDS011;11046;49.558;8.674;2024-02-15T15:06:55;2.45;;;1.10;;
21769;SDS011;11046;49.558;8.674;2024-02-15T15:10:14;5.38;;;1.00;;
21769;SDS011;11046;49.558;8.674;2024-02-15T15:13:34;6.53;;;1.20;;
21769;SDS011;11046;49.558;8.674;2024-02-15T15:16:35;3.42;;;1.33;;
21769;SDS011;11046;49.558;8.674;2024-02-15T15:19:35;2.50;;;0.98;;
21769;SDS011;11046;49.558;8.674;2024-02-15T15:22:37;4.15;;;1.30;;
21769;SDS011;11046;49.558;8.674;2024-02-15T15:25:39;5.15;;;1.15;;
21769;SDS011;11046;49.558;8.674;2024-02-15T15:28:40;4.95;;;1.20;;
21769;SDS011;11046;49.558;8.674;2024-02-15T15:31:41;3.58;;;1.33;;
21769;SDS011;11046;49.558;8.674;2024-02-15T15:34:41;3.00;;;1.20;;
21769;SDS011;11046;49.558;8.674;2024-02-15T15:37:42;2.55;;;1.20;;
21769;SDS011;11046;49.558;8.674;2024-02-15T15:40:43;2.90;;;1.05;;
21769;SDS011;11046;49.558;8.674;2024-02-15T15:43:45;4.20;;;1.20;;
21769;SDS011;11046;49.558;8.674;2024-02-15T15:46:46;4.93;;;1.35;;
21769;SDS011;11046;49.558;8.674;2024-02-15T15:49:47;4.35;;;1.40;;
21769;SDS011;11046;49.558;8.674;2024-02-15T15:52:47;3.03;;;1.10;;
21769;SDS011;11046;49.558;8.674;2024-02-15T15:55:48;4.38;;;1.30;;
21769;SDS011;11046;49.558;8.674;2024-02-15T15:58:48;5.57;;;1.30;;
21769;SDS011;11046;49.558;8.674;2024-02-15T16:01:50;5.70;;;1.60;;
21769;SDS011;11046;49.558;8.674;2024-02-15T16:04:51;3.67;;;1.63;;
21769;SDS011;11046;49.558;8.674;2024-02-15T16:07:55;3.22;;;1.70;;
21769;SDS011;11046;49.558;8.674;2024-02-15T16:10:55;3.45;;;1.20;;
21769;SDS011;11046;49.558;8.674;2024-02-15T16:13:57;5.40;;;1.13;;
21769;SDS011;11046;49.558;8.674;2024-02-15T16:16:57;5.25;;;1.60;;
21769;SDS011;11046;49.558;8.674;2024-02-15T16:19:59;4.55;;;1.40;;
21769;SDS011;11046;49.558;8.674;2024-02-15T16:23:04;3.67;;;1.25;;
21769;SDS011;11046;49.558;8.674;2024-02-15T16:26:05;4.38;;;1.20;;
21769;SDS011;11046;49.558;8.674;2024-02-15T16:29:06;3.38;;;1.17;;
21769;SDS011;11046;49.558;8.674;2024-02-15T16:32:06;4.35;;;1.20;;
21769;SDS011;11046;49.558;8.674;2024-02-15T16:35:08;4.35;;;1.40;;
21769;SDS011;11046;49.558;8.674;2024-02-15T16:38:11;4.65;;;1.80;;
21769;SDS011;11046;49.558;8.674;2024-02-15T16:41:11;5.60;;;1.38;;
21769;SDS011;11046;49.558;8.674;2024-02-15T16:44:12;2.67;;;1.30;;
21769;SDS011;11046;49.558;8.674;2024-02-15T16:47:13;3.85;;;1.27;;
21769;SDS011;11046;49.558;8.674;2024-02-15T16:50:16;4.03;;;1.40;;
21769;SDS011;11046;49.558;8.674;2024-02-15T16:53:16;4.80;;;1.40;;
21769;SDS011;11046;49.558;8.674;2024-02-15T16:56:18;2.72;;;1.30;;
21769;SDS011;11046;49.558;8.674;2024-02-15T16:59:23;8.65;;;1.50;;
21769;SDS011;11046;49.558;8.674;2024-02-15T17:02:24;3.50;;;1.52;;
21769;SDS011;11046;49.558;8.674;2024-02-15T17:05:24;8.65;;;1.40;;
21769;SDS011;11046;49.558;8.674;2024-02-15T17:08:26;11.45;;;5.22;;
21769;SDS011;11046;49.558;8.674;2024-02-15T17:11:27;2.60;;;1.40;;
21769;SDS011;11046;49.558;8.674;2024-02-15T17:14:28;2.83;;;1.23;;
21769;SDS011;11046;49.558;8.674;2024-02-15T17:17:29;6.05;;;1.90;;
21769;SDS011;11046;49.558;8.674;2024-02-15T17:20:30;4.75;;;1.63;;
21769;SDS011;11046;49.558;8.674;2024-02-15T17:23:31;2.15;;;1.13;;
21769;SDS011;11046;49.558;8.674;2024-02-15T17:26:32;4.03;;;1.55;;
21769;SDS011;11046;49.558;8.674;2024-02-15T17:29:32;2.92;;;1.60;;
21769;SDS011;11046;49.558;8.674;2024-02-15T17:32:33;2.25;;;1.15;;
21769;SDS011;11046;49.558;8.674;2024-02-15T17:35:33;3.63;;;1.10;;
21769;SDS011;11046;49.558;8.674;2024-02-15T17:38:34;4.57;;;1.35;;
21769;SDS011;11046;49.558;8.674;2024-02-15T17:41:36;6.82;;;1.15;;
21769;SDS011;11046;49.558;8.674;2024-02-15T17:44:38;4.68;;;1.50;;
21769;SDS011;11046;49.558;8.674;2024-02-15T17:47:41;2.70;;;1.50;;
21769;SDS011;11046;49.558;8.674;2024-02-15T17:50:44;5.60;;;2.40;;
21769;SDS011;11046;49.558;8.674;2024-02-15T17:53:45;6.53;;;1.70;;
21769;SDS011;11046;49.558;8.674;2024-02-15T17:56:45;5.35;;;1.70;;
21769;SDS011;11046;49.558;8.674;2024-02-15T17:59:48;4.82;;;1.60;;
21769;SDS011;11046;49.558;8.674;2024-02-15T18:02:48;4.28;;;1.25;;
21769;SDS011;11046;49.558;8.674;2024-02-15T18:05:49;6.63;;;1.25;;
21769;SDS011;11046;49.558;8.674;2024-02-15T18:08:49;4.32;;;1.65;;
21769;SDS011;11046;49.558;8.674;2024-02-15T18:11:50;3.67;;;1.42;;
21769;SDS011;11046;49.558;8.674;2024-02-15T18:14:51;2.47;;;1.30;;
21769;SDS011;11046;49.558;8.674;2024-02-15T18:17:51;4.55;;;1.90;;
21769;SDS011;11046;49.558;8.674;2024-02-15T18:20:55;5.13;;;1.90;;
21769;SDS011;11046;49.558;8.674;2024-02-15T18:23:56;5.43;;;1.80;;
21769;SDS011;11046;49.558;8.674;2024-02-15T18:26:57;2.72;;;1.45;;
21769;SDS011;11046;49.558;8.674;2024-02-15T18:29:58;3.72;;;1.95;;
21769;SDS011;11046;49.558;8.674;2024-02-15T18:32:59;2.28;;;1.30;;